Time;durP1;ratioP1;P1;durP2;ratioP2;P2;SDS_P1;SDS_P2;PMS_P1;PMS_P2;Temp;Humidity;BMP_temperature;BMP_pressure;BME280_temperature;BME280_humidity;BME280_pressure;Samples;Min_cycle;Max_cycle;Signal;HPM_P1;HPM_P2
2022/05/02 00:00:45;;;;;;;3.58;2.78;;;;;;;;;;5052778;28;20111;-47
2022/05/02 00:03:11;;;;;;;4.55;3.10;;;;;;;;;;5053539;28;20052;-47
2022/05/02 00:05:37;;;;;;;3.50;2.88;;;;;;;;;;5053373;28;20093;-47
2022/05/02 00:08:04;;;;;;;2.78;2.47;;;;;;;;;;5052370;28;20541;-46
2022/05/02 00:10:30;;;;;;;3.22;2.47;;;;;;;;;;5053160;28;20478;-47
2022/05/02 00:12:56;;;;;;;3.60;2.65;;;;;;;;;;5052442;28;20108;-46
2022/05/02 00:15:22;;;;;;;3.30;2.90;;;;;;;;;;5052897;28;20035;-46
2022/05/02 00:17:58;;;;;;;4.07;2.55;;;;;;;;;;5052443;28;20033;-50
2022/05/02 00:20:31;;;;;;;2.75;2.53;;;;;;;;;;5052879;28;20040;-46
2022/05/02 00:23:01;;;;;;;3.53;2.70;;;;;;;;;;5052100;28;20021;-46
2022/05/02 00:25:27;;;;;;;3.28;2.33;;;;;;;;;;5032963;28;20022;-48
2022/05/02 00:27:54;;;;;;;3.67;2.85;;;;;;;;;;5032267;28;20057;-50
2022/05/02 00:30:20;;;;;;;4.30;2.67;;;;;;;;;;5032935;28;20076;-46
2022/05/02 00:32:46;;;;;;;2.85;2.55;;;;;;;;;;5040535;28;20029;-48
2022/05/02 00:35:13;;;;;;;3.95;2.40;;;;;;;;;;5052597;28;20032;-46
2022/05/02 00:37:39;;;;;;;3.85;2.65;;;;;;;;;;5052886;28;20033;-46
2022/05/02 00:40:06;;;;;;;2.85;2.55;;;;;;;;;;5052010;28;20020;-46
2022/05/02 00:42:32;;;;;;;2.97;2.63;;;;;;;;;;5052765;28;20029;-48
2022/05/02 00:44:58;;;;;;;3.03;2.65;;;;;;;;;;5051126;28;20031;-48
2022/05/02 00:47:24;;;;;;;3.45;2.33;;;;;;;;;;5051083;28;20409;-46
2022/05/02 00:49:51;;;;;;;4.93;2.42;;;;;;;;;;5051463;28;20335;-50
2022/05/02 00:52:18;;;;;;;2.70;2.35;;;;;;;;;;5052699;28;20025;-47
2022/05/02 00:54:44;;;;;;;2.92;2.55;;;;;;;;;;5052066;28;20048;-51
2022/05/02 00:57:12;;;;;;;2.88;2.58;;;;;;;;;;5051413;28;20032;-47
2022/05/02 00:59:38;;;;;;;3.40;2.72;;;;;;;;;;5052449;28;20052;-51
2022/05/02 01:02:05;;;;;;;3.55;3.15;;;;;;;;;;5051289;28;20114;-47
2022/05/02 01:04:31;;;;;;;4.07;2.70;;;;;;;;;;5052072;28;20029;-47
2022/05/02 01:07:18;;;;;;;3.35;2.63;;;;;;;;;;5051631;28;20489;-48
2022/05/02 01:09:45;;;;;;;2.90;2.60;;;;;;;;;;5051961;28;20048;-52
2022/05/02 01:12:14;;;;;;;3.22;2.85;;;;;;;;;;5051841;28;20490;-48
2022/05/02 01:14:40;;;;;;;3.50;2.70;;;;;;;;;;5051979;28;20033;-48
2022/05/02 01:17:06;;;;;;;3.90;2.80;;;;;;;;;;5051091;28;20134;-48
2022/05/02 01:19:32;;;;;;;3.47;2.50;;;;;;;;;;5051728;28;20048;-47
2022/05/02 01:21:58;;;;;;;3.33;2.75;;;;;;;;;;5051755;28;20488;-48
2022/05/02 01:24:44;;;;;;;4.20;2.65;;;;;;;;;;5052122;28;20036;-50
2022/05/02 01:27:10;;;;;;;3.85;2.72;;;;;;;;;;5031415;28;20142;-49
2022/05/02 01:29:37;;;;;;;3.80;2.78;;;;;;;;;;5048915;28;20466;-47
2022/05/02 01:32:07;;;;;;;3.65;2.47;;;;;;;;;;5050906;28;20021;-48
2022/05/02 01:34:34;;;;;;;3.25;2.95;;;;;;;;;;5052003;28;20029;-48
2022/05/02 01:37:00;;;;;;;3.28;2.60;;;;;;;;;;5051119;28;20025;-46
2022/05/02 01:39:26;;;;;;;3.85;2.95;;;;;;;;;;5051926;28;20035;-47
2022/05/02 01:41:52;;;;;;;3.45;2.70;;;;;;;;;;5051034;28;20025;-47
2022/05/02 01:44:18;;;;;;;4.03;2.90;;;;;;;;;;5051732;28;20104;-47
2022/05/02 01:46:44;;;;;;;4.07;2.53;;;;;;;;;;5051724;28;20021;-46
2022/05/02 01:49:10;;;;;;;3.55;2.53;;;;;;;;;;5051505;28;20029;-48
2022/05/02 01:51:36;;;;;;;3.63;2.67;;;;;;;;;;5051593;28;20018;-47
2022/05/02 01:54:02;;;;;;;3.75;2.92;;;;;;;;;;5050726;28;20022;-48
2022/05/02 01:56:28;;;;;;;4.47;2.65;;;;;;;;;;5051599;28;20021;-48
2022/05/02 01:58:55;;;;;;;2.50;2.28;;;;;;;;;;5050037;28;20102;-47
2022/05/02 02:01:21;;;;;;;2.58;2.38;;;;;;;;;;5049207;28;20028;-48
2022/05/02 02:03:47;;;;;;;3.72;2.75;;;;;;;;;;5050066;28;20087;-51
2022/05/02 02:06:13;;;;;;;3.25;2.63;;;;;;;;;;5049993;28;20028;-47
2022/05/02 02:08:39;;;;;;;4.03;2.78;;;;;;;;;;5053417;28;20025;-48
2022/05/02 02:11:06;;;;;;;3.70;2.97;;;;;;;;;;5052398;28;20021;-47
2022/05/02 02:13:32;;;;;;;2.88;2.38;;;;;;;;;;5054090;28;20068;-47
2022/05/02 02:15:59;;;;;;;3.30;2.80;;;;;;;;;;5053434;28;20386;-47
2022/05/02 02:18:25;;;;;;;5.90;2.50;;;;;;;;;;5053855;28;20025;-47
2022/05/02 02:20:53;;;;;;;2.63;2.40;;;;;;;;;;5053529;28;20029;-50
2022/05/02 02:23:19;;;;;;;3.75;2.63;;;;;;;;;;5051445;28;20111;-47
2022/05/02 02:25:46;;;;;;;2.72;2.25;;;;;;;;;;5052759;28;20021;-46
2022/05/02 02:28:15;;;;;;;3.90;2.58;;;;;;;;;;5053255;28;20079;-47
2022/05/02 02:30:41;;;;;;;2.90;2.50;;;;;;;;;;5053926;28;20025;-47
2022/05/02 02:33:07;;;;;;;2.83;2.45;;;;;;;;;;5052505;28;20021;-48
2022/05/02 02:35:34;;;;;;;3.88;2.78;;;;;;;;;;5053675;28;20029;-47
2022/05/02 02:38:00;;;;;;;3.50;3.05;;;;;;;;;;5052859;28;20363;-46
2022/05/02 02:40:26;;;;;;;3.22;2.47;;;;;;;;;;5053754;28;20435;-48
2022/05/02 02:42:52;;;;;;;3.05;2.60;;;;;;;;;;5054028;28;20025;-47
2022/05/02 02:45:18;;;;;;;3.03;2.65;;;;;;;;;;5054888;28;20032;-48
2022/05/02 02:47:44;;;;;;;3.65;2.88;;;;;;;;;;5054206;28;20040;-47
2022/05/02 02:50:10;;;;;;;2.97;2.47;;;;;;;;;;5054258;28;20041;-47
2022/05/02 02:52:37;;;;;;;3.45;2.70;;;;;;;;;;5054643;28;20059;-46
2022/05/02 02:55:03;;;;;;;3.30;2.90;;;;;;;;;;5053887;28;20563;-50
2022/05/02 02:57:29;;;;;;;2.90;2.60;;;;;;;;;;5054844;28;20107;-47
2022/05/02 02:59:55;;;;;;;3.05;2.75;;;;;;;;;;5053806;28;20108;-46
2022/05/02 03:02:21;;;;;;;3.60;2.53;;;;;;;;;;5053626;28;20360;-50
2022/05/02 03:07:33;;;;;;;4.43;3.03;;;;;;;;;;5051331;28;20025;-48
2022/05/02 03:09:59;;;;;;;3.28;2.80;;;;;;;;;;5052480;28;20378;-48
2022/05/02 03:12:25;;;;;;;3.58;2.78;;;;;;;;;;5052912;28;20103;-46
2022/05/02 03:14:51;;;;;;;3.33;2.85;;;;;;;;;;5052411;28;20419;-49
2022/05/02 03:17:17;;;;;;;3.20;2.30;;;;;;;;;;5052924;28;20052;-47
2022/05/02 03:19:43;;;;;;;2.92;2.70;;;;;;;;;;5051100;28;20032;-46
2022/05/02 03:22:09;;;;;;;3.75;2.70;;;;;;;;;;5052078;28;20032;-47
2022/05/02 03:24:35;;;;;;;2.42;2.22;;;;;;;;;;5052906;28;20021;-48
2022/05/02 03:27:01;;;;;;;4.45;2.40;;;;;;;;;;5051658;28;20394;-47
2022/05/02 03:29:27;;;;;;;3.08;2.40;;;;;;;;;;5050335;28;20036;-47
2022/05/02 03:31:53;;;;;;;3.10;2.47;;;;;;;;;;5052193;28;20029;-46
2022/05/02 03:34:20;;;;;;;3.50;2.70;;;;;;;;;;5052547;28;20025;-46
2022/05/02 03:36:46;;;;;;;3.45;2.75;;;;;;;;;;5052413;28;20454;-46
2022/05/02 03:39:12;;;;;;;3.10;2.58;;;;;;;;;;5051446;28;20033;-46
2022/05/02 03:41:38;;;;;;;4.57;2.97;;;;;;;;;;5052616;28;20052;-47
2022/05/02 03:44:04;;;;;;;6.10;3.33;;;;;;;;;;5051372;28;20417;-46
2022/05/02 03:46:30;;;;;;;3.13;2.70;;;;;;;;;;5049923;28;20021;-46
2022/05/02 03:48:57;;;;;;;3.45;2.80;;;;;;;;;;5051643;28;20021;-46
2022/05/02 03:51:23;;;;;;;2.70;2.35;;;;;;;;;;5052126;28;20106;-46
2022/05/02 03:53:49;;;;;;;3.25;2.63;;;;;;;;;;5051825;28;20474;-51
2022/05/02 03:56:15;;;;;;;2.88;2.58;;;;;;;;;;5052781;28;20036;-48
2022/05/02 03:58:41;;;;;;;3.85;2.95;;;;;;;;;;5053220;28;20116;-46
2022/05/02 04:01:07;;;;;;;3.53;2.45;;;;;;;;;;5052826;28;20530;-47
2022/05/02 04:03:33;;;;;;;3.15;2.83;;;;;;;;;;5053066;28;20096;-46
2022/05/02 04:05:59;;;;;;;3.10;2.80;;;;;;;;;;5052652;28;20068;-46
2022/05/02 04:08:25;;;;;;;3.67;2.67;;;;;;;;;;5053440;28;20064;-46
2022/05/02 04:10:51;;;;;;;5.18;3.20;;;;;;;;;;5052775;28;20028;-52
2022/05/02 04:13:17;;;;;;;4.90;2.70;;;;;;;;;;5052955;28;20079;-47
2022/05/02 04:15:43;;;;;;;5.22;2.83;;;;;;;;;;5053275;28;20032;-46
2022/05/02 04:18:09;;;;;;;3.88;2.83;;;;;;;;;;5052100;28;20625;-47
2022/05/02 04:20:35;;;;;;;4.28;3.35;;;;;;;;;;5052923;28;20033;-46
2022/05/02 04:23:01;;;;;;;4.97;3.00;;;;;;;;;;5051977;28;20055;-48
2022/05/02 04:25:27;;;;;;;3.80;2.97;;;;;;;;;;5052869;28;20108;-46
2022/05/02 04:27:53;;;;;;;2.85;2.50;;;;;;;;;;5051613;28;20053;-51
2022/05/02 04:30:19;;;;;;;3.45;2.50;;;;;;;;;;5052136;28;20170;-48
2022/05/02 04:32:45;;;;;;;3.97;3.40;;;;;;;;;;5052177;28;20025;-46
2022/05/02 04:35:11;;;;;;;3.30;2.60;;;;;;;;;;5052093;28;20473;-47
2022/05/02 04:37:40;;;;;;;3.00;2.70;;;;;;;;;;5052789;28;20020;-46
2022/05/02 04:40:06;;;;;;;4.15;2.83;;;;;;;;;;5051770;28;20025;-46
2022/05/02 04:42:32;;;;;;;2.75;2.47;;;;;;;;;;5052494;28;20025;-47
2022/05/02 04:44:58;;;;;;;3.45;3.15;;;;;;;;;;5052021;28;20025;-47
2022/05/02 04:47:24;;;;;;;3.25;2.95;;;;;;;;;;5052647;28;20485;-46
2022/05/02 04:49:50;;;;;;;4.13;3.05;;;;;;;;;;5052707;28;20025;-46
2022/05/02 04:52:16;;;;;;;5.68;2.85;;;;;;;;;;5051673;28;20534;-47
2022/05/02 04:54:42;;;;;;;3.22;2.60;;;;;;;;;;5052641;28;20063;-46
2022/05/02 04:57:08;;;;;;;3.88;2.83;;;;;;;;;;5051531;28;20028;-46
2022/05/02 04:59:34;;;;;;;2.90;2.60;;;;;;;;;;5052115;28;20037;-46
2022/05/02 05:02:00;;;;;;;3.88;2.90;;;;;;;;;;5051774;28;20425;-46
2022/05/02 05:04:26;;;;;;;4.75;3.33;;;;;;;;;;5051884;28;20032;-46
2022/05/02 05:06:52;;;;;;;4.15;3.10;;;;;;;;;;5052450;28;20033;-50
2022/05/02 05:09:18;;;;;;;3.15;2.78;;;;;;;;;;5051068;28;20024;-48
2022/05/02 05:11:47;;;;;;;4.82;3.13;;;;;;;;;;5051503;28;20087;-46
2022/05/02 05:17:26;;;;;;;3.50;2.72;;;;;;;;;;5050024;28;20083;-46
2022/05/02 05:20:03;;;;;;;3.53;2.83;;;;;;;;;;5052290;28;20033;-46
2022/05/02 05:22:29;;;;;;;3.65;2.80;;;;;;;;;;5052695;28;20025;-48
2022/05/02 05:25:08;;;;;;;3.10;2.63;;;;;;;;;;5050625;28;20044;-50
2022/05/02 05:28:00;;;;;;;4.90;2.85;;;;;;;;;;5051608;28;20049;-46
2022/05/02 05:30:27;;;;;;;4.45;2.88;;;;;;;;;;5047801;28;20037;-46
2022/05/02 05:33:12;;;;;;;3.53;2.85;;;;;;;;;;5050664;28;20086;-51
2022/05/02 05:35:45;;;;;;;5.78;2.75;;;;;;;;;;5047977;28;20437;-47
2022/05/02 05:38:15;;;;;;;4.53;3.17;;;;;;;;;;5048770;28;20037;-45
2022/05/02 05:40:42;;;;;;;7.55;3.30;;;;;;;;;;5051825;28;20466;-47
2022/05/02 05:43:26;;;;;;;6.35;3.17;;;;;;;;;;5055334;28;20029;-46
2022/05/02 05:46:11;;;;;;;9.43;3.25;;;;;;;;;;5057473;28;20029;-47
2022/05/02 05:48:40;;;;;;;5.78;2.83;;;;;;;;;;5038577;28;20045;-47
2022/05/02 05:51:12;;;;;;;6.72;3.70;;;;;;;;;;5055690;28;20083;-46
2022/05/02 05:53:43;;;;;;;5.85;3.45;;;;;;;;;;5059153;28;20037;-47
2022/05/02 05:56:12;;;;;;;7.40;3.10;;;;;;;;;;5057543;28;20028;-49
2022/05/02 05:58:47;;;;;;;6.30;3.50;;;;;;;;;;5058030;28;20049;-47
2022/05/02 06:01:25;;;;;;;8.20;4.10;;;;;;;;;;5057517;28;20095;-46
2022/05/02 06:04:11;;;;;;;5.03;3.90;;;;;;;;;;5058208;28;20025;-46
2022/05/02 06:06:37;;;;;;;9.73;4.57;;;;;;;;;;5057634;28;20056;-47
2022/05/02 06:09:06;;;;;;;8.18;4.80;;;;;;;;;;5054799;28;20063;-47
2022/05/02 06:11:33;;;;;;;6.47;4.55;;;;;;;;;;5058731;28;20543;-47
2022/05/02 06:13:59;;;;;;;8.50;5.05;;;;;;;;;;5057577;28;20033;-50
2022/05/02 06:19:23;;;;;;;9.07;4.50;;;;;;;;;;5056851;28;20044;-47
2022/05/02 06:21:49;;;;;;;11.68;5.45;;;;;;;;;;5061204;28;20055;-46
2022/05/02 06:24:15;;;;;;;11.65;6.90;;;;;;;;;;5059289;28;20032;-49
2022/05/02 06:26:43;;;;;;;7.72;5.78;;;;;;;;;;5059443;28;20025;-49
2022/05/02 06:29:09;;;;;;;10.27;6.07;;;;;;;;;;5056223;28;20060;-46
2022/05/02 06:31:36;;;;;;;9.75;5.38;;;;;;;;;;5057867;28;20074;-48
2022/05/02 06:34:04;;;;;;;7.85;5.00;;;;;;;;;;5055947;28;20025;-49
2022/05/02 06:36:36;;;;;;;10.52;4.93;;;;;;;;;;5054932;28;20497;-48
2022/05/02 06:39:04;;;;;;;9.18;4.70;;;;;;;;;;5056550;28;20053;-52
2022/05/02 06:41:46;;;;;;;14.05;5.80;;;;;;;;;;5054288;28;20032;-48
2022/05/02 06:44:18;;;;;;;6.80;4.60;;;;;;;;;;5056300;28;20020;-48
2022/05/02 06:46:52;;;;;;;8.18;5.72;;;;;;;;;;5056815;28;20029;-51
2022/05/02 06:49:18;;;;;;;7.63;5.32;;;;;;;;;;5052140;28;20431;-50
2022/05/02 06:51:49;;;;;;;7.70;5.28;;;;;;;;;;5055517;28;20029;-47
2022/05/02 06:54:15;;;;;;;8.80;5.70;;;;;;;;;;5052410;28;20032;-47
2022/05/02 06:56:43;;;;;;;6.95;4.45;;;;;;;;;;5052209;28;20275;-47
2022/05/02 06:59:26;;;;;;;5.15;4.50;;;;;;;;;;5050204;28;20044;-46
2022/05/02 07:01:58;;;;;;;7.03;5.70;;;;;;;;;;5052381;28;20884;-50
2022/05/02 07:04:33;;;;;;;7.93;5.70;;;;;;;;;;5052423;28;20112;-47
2022/05/02 07:07:16;;;;;;;7.30;6.15;;;;;;;;;;5053172;28;20071;-50
2022/05/02 07:09:46;;;;;;;6.72;5.10;;;;;;;;;;5052427;28;20037;-47
2022/05/02 07:12:20;;;;;;;5.50;4.22;;;;;;;;;;5052024;28;20032;-49
2022/05/02 07:15:05;;;;;;;6.82;5.72;;;;;;;;;;5051946;28;20025;-51
2022/05/02 07:17:37;;;;;;;8.40;4.97;;;;;;;;;;5043321;28;20040;-47
2022/05/02 07:20:05;;;;;;;7.63;5.22;;;;;;;;;;5049720;28;20036;-47
2022/05/02 07:22:36;;;;;;;7.05;5.47;;;;;;;;;;5052717;28;20107;-47
2022/05/02 07:25:12;;;;;;;7.30;5.23;;;;;;;;;;5053854;28;20033;-51
2022/05/02 07:27:57;;;;;;;6.35;4.80;;;;;;;;;;5049704;28;20674;-48
2022/05/02 07:30:24;;;;;;;6.00;4.75;;;;;;;;;;5051899;28;20657;-46
2022/05/02 07:32:50;;;;;;;9.10;5.75;;;;;;;;;;5054053;28;20025;-49
2022/05/02 07:35:17;;;;;;;8.25;6.18;;;;;;;;;;5053005;28;20021;-46
2022/05/02 07:37:44;;;;;;;7.45;4.90;;;;;;;;;;5053983;28;20032;-46
2022/05/02 07:40:11;;;;;;;10.25;5.50;;;;;;;;;;5052591;28;20025;-46
2022/05/02 07:42:38;;;;;;;5.60;4.50;;;;;;;;;;5053678;28;20382;-46
2022/05/02 07:45:10;;;;;;;8.38;5.38;;;;;;;;;;5052465;28;20539;-51
2022/05/02 07:47:36;;;;;;;8.82;5.38;;;;;;;;;;5052732;28;20386;-46
2022/05/02 07:50:03;;;;;;;8.23;4.93;;;;;;;;;;5052599;28;20029;-50
2022/05/02 07:52:31;;;;;;;6.82;4.90;;;;;;;;;;5061741;28;20116;-47
2022/05/02 07:54:58;;;;;;;8.38;4.82;;;;;;;;;;5053153;28;20032;-46
2022/05/02 07:57:25;;;;;;;5.72;4.25;;;;;;;;;;5052669;28;20841;-46
2022/05/02 07:59:52;;;;;;;7.10;4.68;;;;;;;;;;5053308;28;20037;-48
2022/05/02 08:02:22;;;;;;;6.00;4.05;;;;;;;;;;5052421;28;20374;-48
2022/05/02 08:04:48;;;;;;;5.40;4.43;;;;;;;;;;5052579;28;20028;-48
2022/05/02 08:07:15;;;;;;;7.30;4.13;;;;;;;;;;5051091;28;20039;-46
2022/05/02 08:10:00;;;;;;;4.45;3.47;;;;;;;;;;5051387;28;20029;-46
2022/05/02 08:12:29;;;;;;;4.82;3.97;;;;;;;;;;5051984;28;20060;-48
2022/05/02 08:15:13;;;;;;;4.22;3.40;;;;;;;;;;5052822;28;20044;-50
2022/05/02 08:17:55;;;;;;;4.93;3.45;;;;;;;;;;5053239;28;20025;-46
2022/05/02 08:20:32;;;;;;;6.85;3.17;;;;;;;;;;5052248;28;20048;-45
2022/05/02 08:28:50;;;;;;;;;;;;;;;;;;5073036;28;20117;-46
2022/05/02 08:31:21;;;;;;;5.75;4.30;;;;;;;;;;5066939;28;19909;-46
2022/05/02 08:33:56;;;;;;;4.70;3.50;;;;;;;;;;5052992;28;20028;-47
2022/05/02 08:36:38;;;;;;;5.22;3.50;;;;;;;;;;5051818;28;20033;-48
2022/05/02 08:39:05;;;;;;;4.65;3.47;;;;;;;;;;5036623;28;20500;-50
2022/05/02 08:41:33;;;;;;;3.90;3.40;;;;;;;;;;5052083;28;20100;-46
2022/05/02 08:44:14;;;;;;;4.53;3.70;;;;;;;;;;5052702;28;20028;-46
2022/05/02 08:46:40;;;;;;;4.70;3.40;;;;;;;;;;5052206;28;20021;-48
2022/05/02 08:52:20;;;;;;;5.43;3.42;;;;;;;;;;5041861;28;20037;-46
2022/05/02 08:54:47;;;;;;;4.68;3.85;;;;;;;;;;5033320;28;20418;-47
2022/05/02 08:57:13;;;;;;;5.70;3.03;;;;;;;;;;5051529;28;20076;-47
2022/05/02 08:59:54;;;;;;;3.72;2.90;;;;;;;;;;5052088;28;20069;-47
2022/05/02 09:02:39;;;;;;;5.43;3.50;;;;;;;;;;5051392;28;20071;-46
2022/05/02 09:05:34;;;;;;;5.95;3.67;;;;;;;;;;5051671;28;20401;-53
2022/05/02 09:08:16;;;;;;;4.32;3.40;;;;;;;;;;5052337;28;20016;-47
2022/05/02 09:11:01;;;;;;;4.03;3.40;;;;;;;;;;5051853;28;20025;-48
2022/05/02 09:13:30;;;;;;;5.22;3.13;;;;;;;;;;5050141;28;20025;-47
2022/05/02 09:16:15;;;;;;;5.03;3.72;;;;;;;;;;5051822;28;20025;-47
2022/05/02 09:18:46;;;;;;;5.18;3.95;;;;;;;;;;5051334;28;20045;-48
2022/05/02 09:21:15;;;;;;;4.10;2.78;;;;;;;;;;5054522;28;20024;-47
2022/05/02 09:23:57;;;;;;;6.28;3.85;;;;;;;;;;5072387;28;20023;-47
2022/05/02 09:26:41;;;;;;;4.68;3.95;;;;;;;;;;5050688;28;20099;-49
2022/05/02 09:29:14;;;;;;;4.93;3.15;;;;;;;;;;5050231;28;20056;-51
2022/05/02 09:31:59;;;;;;;4.68;3.60;;;;;;;;;;5051084;28;20028;-46
2022/05/02 09:34:28;;;;;;;6.25;3.72;;;;;;;;;;5050125;28;20032;-46
2022/05/02 09:36:54;;;;;;;5.85;3.63;;;;;;;;;;5048782;28;20032;-46
2022/05/02 09:39:24;;;;;;;4.22;3.40;;;;;;;;;;5050705;28;20111;-46
2022/05/02 09:42:08;;;;;;;7.45;3.95;;;;;;;;;;5051558;28;20049;-46
2022/05/02 09:50:38;;;;;;;6.25;3.67;;;;;;;;;;5050211;28;20051;-46
2022/05/02 09:53:06;;;;;;;5.90;3.47;;;;;;;;;;5070311;28;20033;-45
2022/05/02 09:58:48;;;;;;;7.25;3.67;;;;;;;;;;5051299;28;20048;-47
2022/05/02 10:01:20;;;;;;;4.88;3.50;;;;;;;;;;5030923;28;20026;-48
2022/05/02 10:03:53;;;;;;;3.40;3.10;;;;;;;;;;5031666;28;20040;-48
2022/05/02 10:06:22;;;;;;;3.67;2.72;;;;;;;;;;5041538;28;20096;-46
2022/05/02 10:08:53;;;;;;;4.53;3.40;;;;;;;;;;5051331;28;20021;-46
2022/05/02 10:11:40;;;;;;;4.35;3.17;;;;;;;;;;5050697;28;20493;-51
2022/05/02 10:14:06;;;;;;;8.30;3.35;;;;;;;;;;5050892;28;20022;-49
2022/05/02 10:16:35;;;;;;;5.15;3.33;;;;;;;;;;5050465;28;20024;-48
2022/05/02 10:19:19;;;;;;;4.22;2.85;;;;;;;;;;5050800;28;20041;-46
2022/05/02 10:21:57;;;;;;;5.72;3.20;;;;;;;;;;5059192;28;20025;-50
2022/05/02 10:24:32;;;;;;;3.42;3.03;;;;;;;;;;5070809;28;20138;-47
2022/05/02 10:27:17;;;;;;;8.15;3.65;;;;;;;;;;5071044;28;20025;-46
2022/05/02 10:29:58;;;;;;;3.83;2.95;;;;;;;;;;5062675;28;20033;-48
2022/05/02 10:32:44;;;;;;;3.65;3.30;;;;;;;;;;5054252;28;20060;-47
2022/05/02 10:35:17;;;;;;;6.35;3.10;;;;;;;;;;5055095;28;20132;-47
2022/05/02 10:37:50;;;;;;;3.85;3.13;;;;;;;;;;5054775;28;20017;-47
2022/05/02 10:40:17;;;;;;;5.60;3.25;;;;;;;;;;5054110;28;20046;-47
2022/05/02 10:42:50;;;;;;;3.45;3.15;;;;;;;;;;5054958;28;20028;-48
2022/05/02 10:45:16;;;;;;;4.13;3.08;;;;;;;;;;5053749;28;20078;-49
2022/05/02 10:47:50;;;;;;;3.63;2.53;;;;;;;;;;5054935;28;20470;-46
2022/05/02 10:50:19;;;;;;;4.15;2.67;;;;;;;;;;5053400;28;20025;-50
2022/05/02 10:52:49;;;;;;;3.88;2.45;;;;;;;;;;5062693;28;20390;-47
2022/05/02 10:55:18;;;;;;;3.75;3.00;;;;;;;;;;5054261;28;20105;-49
2022/05/02 10:57:52;;;;;;;3.92;2.90;;;;;;;;;;5054262;28;20083;-49
2022/05/02 11:00:19;;;;;;;4.38;2.58;;;;;;;;;;5053609;28;20435;-47
2022/05/02 11:03:08;;;;;;;4.30;3.03;;;;;;;;;;5054449;28;20348;-46
2022/05/02 11:05:36;;;;;;;3.55;2.35;;;;;;;;;;5034226;28;20048;-48
2022/05/02 11:08:10;;;;;;;3.60;2.53;;;;;;;;;;5054582;28;20416;-48
2022/05/02 11:10:43;;;;;;;2.83;2.13;;;;;;;;;;5053435;28;20025;-46
2022/05/02 11:13:09;;;;;;;4.03;2.50;;;;;;;;;;5053950;28;20048;-46
2022/05/02 11:15:43;;;;;;;3.63;3.08;;;;;;;;;;5052572;28;20017;-49
2022/05/02 11:21:29;;;;;;;3.13;2.72;;;;;;;;;;5056091;28;20031;-46
2022/05/02 11:24:05;;;;;;;2.83;2.47;;;;;;;;;;5074132;28;20111;-46
2022/05/02 11:26:45;;;;;;;3.40;2.55;;;;;;;;;;5057955;28;20527;-46
2022/05/02 11:29:30;;;;;;;3.03;2.55;;;;;;;;;;5053394;28;20140;-45
2022/05/02 11:31:59;;;;;;;4.18;2.33;;;;;;;;;;5053798;28;20106;-46
2022/05/02 11:34:25;;;;;;;2.60;2.30;;;;;;;;;;5053210;28;20025;-48
2022/05/02 11:36:57;;;;;;;9.15;2.58;;;;;;;;;;5053505;28;20422;-48
2022/05/02 11:39:40;;;;;;;3.92;2.65;;;;;;;;;;5051132;28;20033;-47
2022/05/02 11:42:14;;;;;;;2.75;2.30;;;;;;;;;;5052082;28;20064;-46
2022/05/02 11:44:49;;;;;;;3.40;2.63;;;;;;;;;;5052847;28;20017;-47
2022/05/02 11:47:25;;;;;;;2.83;2.50;;;;;;;;;;5053553;28;20424;-47
2022/05/02 11:49:58;;;;;;;2.83;2.50;;;;;;;;;;5051998;28;20057;-48
2022/05/02 11:52:32;;;;;;;3.70;3.17;;;;;;;;;;5067159;28;20385;-47
2022/05/02 11:54:59;;;;;;;3.50;2.55;;;;;;;;;;5070375;28;20152;-47
2022/05/02 11:57:29;;;;;;;3.70;2.33;;;;;;;;;;5052460;28;20036;-48
2022/05/02 11:59:55;;;;;;;3.13;2.03;;;;;;;;;;5052960;28;20501;-46
2022/05/02 12:02:30;;;;;;;2.72;2.13;;;;;;;;;;5052039;28;20546;-50
2022/05/02 12:04:57;;;;;;;3.05;2.45;;;;;;;;;;5052999;28;20104;-46
2022/05/02 12:07:29;;;;;;;2.72;2.30;;;;;;;;;;5052354;28;20032;-46
2022/05/02 12:10:03;;;;;;;4.05;2.42;;;;;;;;;;5051737;28;20509;-47
2022/05/02 12:12:29;;;;;;;2.53;2.13;;;;;;;;;;5050930;28;20024;-46
2022/05/02 12:15:02;;;;;;;2.67;2.33;;;;;;;;;;5050427;28;20387;-46
2022/05/02 12:17:28;;;;;;;2.50;2.25;;;;;;;;;;5052444;28;20028;-46
2022/05/02 12:19:54;;;;;;;4.22;2.83;;;;;;;;;;5052627;28;20029;-47
2022/05/02 12:22:22;;;;;;;5.53;2.17;;;;;;;;;;5065115;28;20543;-50
2022/05/02 12:24:49;;;;;;;2.65;2.25;;;;;;;;;;5056854;28;20082;-45
2022/05/02 12:27:15;;;;;;;3.60;1.92;;;;;;;;;;5052577;28;20067;-47
2022/05/02 12:29:43;;;;;;;2.47;1.85;;;;;;;;;;5032152;28;20247;-48
2022/05/02 12:32:10;;;;;;;2.00;1.75;;;;;;;;;;5045955;28;20025;-49
2022/05/02 12:34:36;;;;;;;2.88;2.40;;;;;;;;;;5052032;28;20032;-46
2022/05/02 12:37:25;;;;;;;3.42;2.58;;;;;;;;;;5052304;28;20024;-47
2022/05/02 12:39:52;;;;;;;1.90;1.80;;;;;;;;;;5048658;28;20063;-46
2022/05/02 12:42:23;;;;;;;3.40;2.50;;;;;;;;;;5052680;28;20098;-46
2022/05/02 12:45:01;;;;;;;3.22;2.45;;;;;;;;;;5052413;28;20127;-46
2022/05/02 12:47:31;;;;;;;2.92;2.08;;;;;;;;;;5051470;28;20070;-46
2022/05/02 12:50:02;;;;;;;2.65;2.30;;;;;;;;;;5052531;28;20082;-47
2022/05/02 12:52:29;;;;;;;3.00;2.23;;;;;;;;;;5064758;28;20351;-47
2022/05/02 12:54:55;;;;;;;2.47;2.20;;;;;;;;;;5072161;28;20028;-46
2022/05/02 13:00:32;;;;;;;2.75;2.35;;;;;;;;;;5051658;28;20048;-48
2022/05/02 13:03:02;;;;;;;3.00;2.40;;;;;;;;;;5052433;28;20025;-48
2022/05/02 13:05:33;;;;;;;2.22;2.03;;;;;;;;;;5051321;28;20021;-48
2022/05/02 13:08:08;;;;;;;2.33;2.10;;;;;;;;;;5051454;28;20033;-47
2022/05/02 13:10:34;;;;;;;2.40;2.20;;;;;;;;;;5051491;28;20029;-47
2022/05/02 13:13:06;;;;;;;2.35;2.05;;;;;;;;;;5051795;28;20052;-46
2022/05/02 13:15:32;;;;;;;;;;;;;;;;;;5051486;28;20024;-46
2022/05/02 13:18:02;;;;;;;2.10;1.90;;;;;;;;;;5051950;28;20247;-48
2022/05/02 13:20:29;;;;;;;3.42;1.90;;;;;;;;;;5050511;28;20047;-47
2022/05/02 13:23:00;;;;;;;2.10;1.90;;;;;;;;;;5051565;28;20028;-46
2022/05/02 13:25:47;;;;;;;2.17;1.85;;;;;;;;;;5050562;28;20052;-47
2022/05/02 13:28:19;;;;;;;1.98;1.63;;;;;;;;;;5050116;28;20222;-48
2022/05/02 13:30:46;;;;;;;2.80;1.80;;;;;;;;;;5050906;28;20032;-45
2022/05/02 13:33:13;;;;;;;2.67;2.17;;;;;;;;;;5050085;28;20102;-48
2022/05/02 13:35:41;;;;;;;2.60;2.13;;;;;;;;;;5050735;28;20025;-46
2022/05/02 13:38:11;;;;;;;2.28;2.08;;;;;;;;;;5051104;28;20476;-46
2022/05/02 13:41:10;;;;;;;1.80;1.52;;;;;;;;;;5048748;28;20485;-46
2022/05/02 13:43:45;;;;;;;2.85;2.03;;;;;;;;;;5019791;28;20069;-49
2022/05/02 13:46:29;;;;;;;1.77;1.67;;;;;;;;;;5036355;28;20104;-47
2022/05/02 13:49:03;;;;;;;2.63;2.00;;;;;;;;;;5048387;28;20032;-47
2022/05/02 13:51:37;;;;;;;2.67;2.05;;;;;;;;;;5045962;28;20036;-47
2022/05/02 13:54:26;;;;;;;2.22;1.70;;;;;;;;;;5030502;28;20387;-47
2022/05/02 13:56:53;;;;;;;1.85;1.67;;;;;;;;;;5031061;28;20021;-47
2022/05/02 13:59:38;;;;;;;2.28;1.90;;;;;;;;;;5049020;28;20371;-49
2022/05/02 14:02:30;;;;;;;3.85;1.80;;;;;;;;;;5038083;28;20033;-46
2022/05/02 14:05:07;;;;;;;2.47;1.70;;;;;;;;;;5047103;28;20029;-47
2022/05/02 14:07:35;;;;;;;2.88;2.42;;;;;;;;;;5047250;28;20104;-47
2022/05/02 14:10:04;;;;;;;5.15;2.17;;;;;;;;;;5053946;28;20458;-47
2022/05/02 14:12:39;;;;;;;2.67;2.10;;;;;;;;;;5052600;28;20021;-49
2022/05/02 14:15:09;;;;;;;2.63;2.13;;;;;;;;;;5053550;28;20032;-50
2022/05/02 14:17:42;;;;;;;6.75;2.25;;;;;;;;;;5053160;28;20494;-47
2022/05/02 14:20:11;;;;;;;4.00;1.90;;;;;;;;;;5053860;28;20171;-47
2022/05/02 14:22:40;;;;;;;5.03;2.17;;;;;;;;;;5053819;28;20040;-46
2022/05/02 14:25:06;;;;;;;2.75;1.75;;;;;;;;;;5054140;28;20036;-50
2022/05/02 14:27:33;;;;;;;5.30;2.10;;;;;;;;;;5052983;28;20053;-48
2022/05/02 14:30:01;;;;;;;3.05;2.33;;;;;;;;;;5054112;28;20041;-51
2022/05/02 14:32:39;;;;;;;3.72;2.03;;;;;;;;;;5053418;28;20106;-52
2022/05/02 14:35:06;;;;;;;3.33;2.10;;;;;;;;;;5050959;28;20110;-52
2022/05/02 14:37:33;;;;;;;2.22;1.85;;;;;;;;;;5053094;28;20036;-49
2022/05/02 14:39:59;;;;;;;2.28;1.75;;;;;;;;;;5053358;28;20428;-48
2022/05/02 14:42:27;;;;;;;3.15;1.80;;;;;;;;;;5053239;28;20474;-51
2022/05/02 14:44:53;;;;;;;1.83;1.50;;;;;;;;;;5053332;28;20034;-49
2022/05/02 14:47:19;;;;;;;3.00;1.80;;;;;;;;;;5053221;28;20374;-49
2022/05/02 14:49:45;;;;;;;1.95;1.75;;;;;;;;;;5052105;28;20025;-47
2022/05/02 14:52:18;;;;;;;2.88;2.15;;;;;;;;;;5053786;28;20035;-49
2022/05/02 14:54:45;;;;;;;2.95;1.83;;;;;;;;;;5052833;28;20025;-50
2022/05/02 14:57:13;;;;;;;3.05;1.60;;;;;;;;;;5053168;28;20043;-48
2022/05/02 14:59:41;;;;;;;3.15;2.00;;;;;;;;;;5052564;28;20052;-48
2022/05/02 15:02:08;;;;;;;5.00;1.83;;;;;;;;;;5052864;28;20071;-47
2022/05/02 15:04:39;;;;;;;2.38;1.73;;;;;;;;;;5052482;28;20033;-48
2022/05/02 15:07:08;;;;;;;2.00;1.80;;;;;;;;;;5052600;28;20065;-51
2022/05/02 15:12:49;;;;;;;3.03;1.85;;;;;;;;;;5053214;28;20521;-51
2022/05/02 15:15:34;;;;;;;3.25;2.05;;;;;;;;;;5048390;28;20055;-49
2022/05/02 15:18:01;;;;;;;2.20;1.90;;;;;;;;;;5052262;28;20091;-47
2022/05/02 15:20:33;;;;;;;2.20;1.73;;;;;;;;;;5052570;28;20029;-52
2022/05/02 15:23:02;;;;;;;2.60;2.08;;;;;;;;;;5052796;28;20462;-48
2022/05/02 15:25:30;;;;;;;1.70;1.60;;;;;;;;;;5052309;28;20095;-53
2022/05/02 15:39:26;;;;;;;4.47;2.08;;;;;;;;;;5052361;28;20060;-46
2022/05/02 15:41:54;;;;;;;3.92;1.90;;;;;;;;;;5052589;28;20017;-46
2022/05/02 15:44:23;;;;;;;5.93;2.10;;;;;;;;;;5053031;28;20424;-47
2022/05/02 15:46:49;;;;;;;5.68;2.28;;;;;;;;;;5043801;28;20040;-47
2022/05/02 15:49:16;;;;;;;2.17;1.80;;;;;;;;;;5052659;28;20037;-47